Time;durP1;ratioP1;P1;durP2;ratioP2;P2;SDS_P1;SDS_P2;PMS_P1;PMS_P2;Temp;Humidity;BMP_temperature;BMP_pressure;BME280_temperature;BME280_humidity;BME280_pressure;Samples;Min_cycle;Max_cycle;Signal;HPM_P1;HPM_P2
2024/04/19 00:01:05;;;;;;;4.33;2.67;;;6.70;99.90;;;;;;5272472;27;20232;-59
2024/04/19 00:03:30;;;;;;;3.13;2.70;;;6.70;99.90;;;;;;5272874;27;20549;-61
2024/04/19 00:05:56;;;;;;;2.13;1.70;;;6.70;99.90;;;;;;5272802;27;20471;-59
2024/04/19 00:08:22;;;;;;;4.00;2.60;;;6.70;99.90;;;;;;5272815;27;20238;-61
2024/04/19 00:10:48;;;;;;;3.73;2.63;;;6.70;99.90;;;;;;5272245;27;20228;-61
2024/04/19 00:13:13;;;;;;;3.53;2.70;;;6.60;99.90;;;;;;5272743;27;20299;-61
2024/04/19 00:15:42;;;;;;;4.07;2.83;;;6.60;99.90;;;;;;5272778;27;20459;-59
2024/04/19 00:18:08;;;;;;;6.13;2.10;;;6.60;99.90;;;;;;5272766;27;20312;-60
2024/04/19 00:20:33;;;;;;;2.40;2.10;;;6.60;99.90;;;;;;5272732;27;20468;-60
2024/04/19 00:22:59;;;;;;;2.10;1.77;;;6.60;99.90;;;;;;5272503;27;20270;-62
2024/04/19 00:25:24;;;;;;;2.80;2.27;;;6.60;99.90;;;;;;5272835;27;20226;-62
2024/04/19 00:27:50;;;;;;;2.37;2.17;;;6.60;99.90;;;;;;5272501;27;20300;-63
2024/04/19 00:30:16;;;;;;;2.60;2.37;;;6.60;99.90;;;;;;5272395;27;20672;-61
2024/04/19 00:32:41;;;;;;;4.73;2.40;;;6.60;99.90;;;;;;5272512;27;20232;-58
2024/04/19 00:35:07;;;;;;;2.93;2.33;;;6.60;99.90;;;;;;5272305;27;20228;-60
2024/04/19 00:37:33;;;;;;;2.67;2.30;;;6.60;99.90;;;;;;5272430;27;20236;-59
2024/04/19 00:39:59;;;;;;;2.50;2.20;;;6.60;99.90;;;;;;5271789;27;20232;-59
2024/04/19 00:42:25;;;;;;;5.20;2.20;;;6.60;99.90;;;;;;5272324;27;20520;-59
2024/04/19 00:44:51;;;;;;;4.07;2.67;;;6.50;99.90;;;;;;5271961;27;21094;-59
2024/04/19 00:47:17;;;;;;;3.00;2.80;;;6.50;99.90;;;;;;5272308;27;20580;-60
2024/04/19 00:49:45;;;;;;;4.03;2.13;;;6.50;99.90;;;;;;5272132;27;20567;-58
2024/04/19 00:52:12;;;;;;;3.00;2.80;;;6.50;99.90;;;;;;5271894;27;20283;-58
2024/04/19 00:54:40;;;;;;;2.90;2.27;;;6.60;99.90;;;;;;5272202;27;20468;-60
2024/04/19 00:57:06;;;;;;;4.87;2.97;;;6.50;99.90;;;;;;5271758;27;20684;-57
2024/04/19 00:59:32;;;;;;;2.90;2.70;;;6.50;99.90;;;;;;5271773;27;20464;-60
2024/04/19 01:01:58;;;;;;;3.57;3.10;;;6.50;99.90;;;;;;5271933;27;20520;-59
2024/04/19 01:04:23;;;;;;;3.40;3.10;;;6.50;99.90;;;;;;5272237;27;20237;-57
2024/04/19 01:06:49;;;;;;;4.47;3.13;;;6.50;99.90;;;;;;5271814;27;20456;-60
2024/04/19 01:09:15;;;;;;;4.53;3.57;;;6.50;99.90;;;;;;5271546;27;20346;-61
2024/04/19 01:11:41;;;;;;;12.63;5.50;;;6.50;99.90;;;;;;5272167;27;20272;-62
2024/04/19 01:14:07;;;;;;;12.97;6.50;;;6.50;99.90;;;;;;5271656;27;20468;-57
2024/04/19 01:16:35;;;;;;;6.57;4.17;;;6.50;99.90;;;;;;5271963;27;20288;-62
2024/04/19 01:19:01;;;;;;;8.23;5.50;;;6.50;99.90;;;;;;5271692;27;20476;-60
2024/04/19 01:21:27;;;;;;;7.87;4.73;;;6.40;99.90;;;;;;5272125;27;20524;-63
2024/04/19 01:24:05;;;;;;;9.03;7.17;;;6.40;99.90;;;;;;5271327;27;20240;-60
2024/04/19 01:26:31;;;;;;;8.20;6.60;;;6.40;99.90;;;;;;5271813;27;20476;-60
2024/04/19 01:28:56;;;;;;;9.00;5.03;;;6.40;99.90;;;;;;5271328;27;20586;-60
2024/04/19 01:31:22;;;;;;;7.27;4.50;;;6.30;99.90;;;;;;5273737;27;20602;-61
2024/04/19 01:33:48;;;;;;;7.83;4.93;;;6.40;99.90;;;;;;5275030;27;20364;-56
2024/04/19 01:36:13;;;;;;;9.20;4.13;;;6.30;99.90;;;;;;5274571;27;20225;-60
2024/04/19 01:38:39;;;;;;;8.33;3.77;;;6.40;99.90;;;;;;5275139;27;20372;-60
2024/04/19 01:41:04;;;;;;;3.90;3.47;;;6.40;99.90;;;;;;5271860;27;20557;-60
2024/04/19 01:43:30;;;;;;;7.13;4.10;;;6.30;99.90;;;;;;5274944;27;20331;-58
2024/04/19 01:45:55;;;;;;;8.37;4.20;;;6.30;99.90;;;;;;5274691;27;20225;-61
2024/04/19 01:48:21;;;;;;;12.23;3.83;;;6.30;99.90;;;;;;5275078;27;20318;-61
2024/04/19 01:50:46;;;;;;;3.77;3.03;;;6.30;99.90;;;;;;5274904;27;20583;-60
2024/04/19 01:53:12;;;;;;;8.07;2.93;;;6.20;99.90;;;;;;5274536;27;20259;-59
2024/04/19 01:55:37;;;;;;;8.83;3.57;;;6.20;99.90;;;;;;5274892;27;20684;-60
2024/04/19 01:58:03;;;;;;;4.73;2.80;;;6.10;99.90;;;;;;5274531;27;20707;-61
2024/04/19 02:00:30;;;;;;;7.00;3.23;;;6.10;99.90;;;;;;5274731;27;20264;-60
2024/04/19 02:02:56;;;;;;;4.40;2.47;;;6.10;99.90;;;;;;5274483;27;20293;-61
2024/04/19 02:05:21;;;;;;;9.10;3.37;;;6.00;99.90;;;;;;5274546;27;20492;-60
2024/04/19 02:07:47;;;;;;;3.03;2.23;;;6.00;99.90;;;;;;5274734;27;20221;-60
2024/04/19 02:10:13;;;;;;;3.97;2.97;;;6.00;99.90;;;;;;5274146;27;20271;-61
2024/04/19 02:12:38;;;;;;;5.27;2.53;;;6.00;99.90;;;;;;5274501;27;20279;-61
2024/04/19 02:15:04;;;;;;;6.73;2.60;;;6.00;99.90;;;;;;5274157;27;20341;-61
2024/04/19 02:17:30;;;;;;;5.20;2.50;;;6.00;99.90;;;;;;5274597;27;20228;-61
2024/04/19 02:19:56;;;;;;;3.40;2.57;;;6.00;99.90;;;;;;5274149;27;20520;-59
2024/04/19 02:22:21;;;;;;;3.50;2.60;;;6.00;99.90;;;;;;5274303;27;20546;-61
2024/04/19 02:24:47;;;;;;;6.63;3.13;;;6.00;99.90;;;;;;5274512;27;20232;-60
2024/04/19 02:32:41;;;;;;;2.70;2.50;;;6.00;99.90;;;;;;5274269;27;20519;-60
2024/04/19 02:35:07;;;;;;;3.60;2.53;;;6.00;99.90;;;;;;5273604;27;20475;-60
2024/04/19 02:37:32;;;;;;;7.10;3.37;;;6.00;99.90;;;;;;5274243;27;20248;-60
2024/04/19 02:39:58;;;;;;;3.43;3.13;;;6.00;99.90;;;;;;5273873;27;20229;-58
2024/04/19 02:42:23;;;;;;;3.20;2.77;;;6.00;99.90;;;;;;5272876;27;20233;-60
2024/04/19 02:44:49;;;;;;;4.20;2.73;;;6.00;99.90;;;;;;5274211;27;20229;-60
2024/04/19 02:47:14;;;;;;;5.47;2.60;;;6.00;99.90;;;;;;5273865;27;20877;-60
2024/04/19 02:49:40;;;;;;;4.77;2.57;;;6.00;99.90;;;;;;5273821;27;20275;-59
2024/04/19 02:52:05;;;;;;;4.13;2.50;;;6.10;99.90;;;;;;5273634;27;20237;-60
2024/04/19 02:54:31;;;;;;;4.67;2.83;;;6.00;99.90;;;;;;5273937;27;20402;-60
2024/04/19 02:56:57;;;;;;;3.20;2.60;;;6.10;99.90;;;;;;5273714;27;20293;-61
2024/04/19 02:59:22;;;;;;;4.27;2.60;;;6.00;99.90;;;;;;5273887;27;20314;-60
2024/04/19 03:01:48;;;;;;;2.10;1.90;;;6.10;99.90;;;;;;5273776;27;20719;-59
2024/04/19 03:04:13;;;;;;;3.90;2.80;;;6.10;99.90;;;;;;5273290;27;20356;-60
2024/04/19 03:06:39;;;;;;;4.50;2.47;;;6.10;99.90;;;;;;5273844;27;20422;-62
2024/04/19 03:09:04;;;;;;;2.43;2.23;;;6.00;99.90;;;;;;5273549;27;20602;-60
2024/04/19 03:11:30;;;;;;;3.87;2.80;;;6.00;99.90;;;;;;5273584;27;20228;-59
2024/04/19 03:13:56;;;;;;;9.43;2.47;;;6.10;99.90;;;;;;5273380;27;20236;-61
2024/04/19 03:16:21;;;;;;;2.53;2.33;;;6.10;99.90;;;;;;5273636;27;20229;-62
2024/04/19 03:18:47;;;;;;;3.80;2.40;;;6.10;99.90;;;;;;5273653;27;20281;-62
2024/04/19 03:21:14;;;;;;;2.60;2.00;;;6.10;99.90;;;;;;5273204;27;20236;-62
2024/04/19 03:23:39;;;;;;;2.27;2.07;;;6.10;99.90;;;;;;5273762;27;20237;-62
2024/04/19 03:26:05;;;;;;;4.13;2.30;;;6.10;99.90;;;;;;5273267;27;20676;-61
2024/04/19 03:28:31;;;;;;;4.10;1.97;;;6.10;99.90;;;;;;5273849;27;20267;-60
2024/04/19 03:30:57;;;;;;;10.97;2.10;;;6.10;99.90;;;;;;5273364;27;20460;-60
2024/04/19 03:33:22;;;;;;;7.10;2.30;;;6.10;99.90;;;;;;5273613;27;20626;-60
2024/04/19 03:35:48;;;;;;;3.53;2.10;;;6.20;99.90;;;;;;5273800;27;20676;-59
2024/04/19 03:38:15;;;;;;;6.00;2.17;;;6.20;99.90;;;;;;5273509;27;20229;-61
2024/04/19 03:41:01;;;;;;;3.23;1.77;;;6.20;99.90;;;;;;5273361;27;20232;-61
2024/04/19 03:43:32;;;;;;;5.13;2.50;;;6.30;99.90;;;;;;5273080;27;20646;-61
2024/04/19 03:46:02;;;;;;;4.73;1.60;;;6.20;99.90;;;;;;5272971;27;20471;-61
2024/04/19 03:48:28;;;;;;;2.93;2.33;;;6.30;99.90;;;;;;5273233;27;20524;-62
2024/04/19 03:50:53;;;;;;;5.40;2.70;;;6.30;99.90;;;;;;5273039;27;21029;-62
2024/04/19 03:53:19;;;;;;;2.07;1.87;;;6.30;99.90;;;;;;5272385;27;20237;-61
2024/04/19 03:55:45;;;;;;;4.30;2.30;;;6.30;99.90;;;;;;5273317;27;20355;-61
2024/04/19 03:58:11;;;;;;;4.43;1.97;;;6.40;99.90;;;;;;5272865;27;20306;-61
2024/04/19 04:00:40;;;;;;;3.27;1.80;;;6.40;99.90;;;;;;5273140;27;20998;-61
2024/04/19 04:03:06;;;;;;;3.93;2.03;;;6.40;99.90;;;;;;5272785;27;20291;-61
2024/04/19 04:05:33;;;;;;;4.80;2.87;;;6.40;99.90;;;;;;5273275;27;20832;-60
2024/04/19 04:07:59;;;;;;;5.17;2.20;;;6.40;99.90;;;;;;5272949;27;20463;-60
2024/04/19 04:10:24;;;;;;;10.23;2.93;;;6.40;99.90;;;;;;5273028;27;20608;-60
2024/04/19 04:12:50;;;;;;;3.57;2.77;;;6.30;99.90;;;;;;5273072;27;20856;-61
2024/04/19 04:15:16;;;;;;;5.23;2.03;;;6.40;99.90;;;;;;5272711;27;20338;-62
2024/04/19 04:17:41;;;;;;;2.80;2.50;;;6.40;99.90;;;;;;5272920;27;20253;-60
2024/04/19 04:20:07;;;;;;;3.03;2.20;;;6.40;99.90;;;;;;5272557;27;20360;-60
2024/04/19 04:22:33;;;;;;;4.37;2.90;;;6.40;99.90;;;;;;5273037;27;20734;-59
2024/04/19 04:24:59;;;;;;;3.30;2.40;;;6.40;99.90;;;;;;5273086;27;20464;-56
2024/04/19 04:27:24;;;;;;;3.77;2.50;;;6.40;99.90;;;;;;5272750;27;20272;-60
2024/04/19 04:29:50;;;;;;;2.93;2.30;;;6.40;99.90;;;;;;5272691;27;20263;-60
2024/04/19 04:32:15;;;;;;;10.27;2.50;;;6.40;99.90;;;;;;5272239;27;20673;-60
2024/04/19 04:34:41;;;;;;;3.93;2.77;;;6.40;99.90;;;;;;5272503;27;20296;-58
2024/04/19 04:37:06;;;;;;;4.83;2.33;;;6.50;99.90;;;;;;5272241;27;20788;-61
2024/04/19 04:39:32;;;;;;;3.80;2.50;;;6.50;99.90;;;;;;5272286;27;20638;-61
2024/04/19 04:41:59;;;;;;;8.70;3.70;;;6.50;99.90;;;;;;5272434;27;20253;-60
2024/04/19 04:44:32;;;;;;;5.83;2.67;;;6.50;99.90;;;;;;5272373;27;20343;-63
2024/04/19 04:46:58;;;;;;;2.83;2.63;;;6.60;99.90;;;;;;5272415;27;20659;-62
2024/04/19 04:49:24;;;;;;;4.27;3.83;;;6.60;99.90;;;;;;5272048;27;20473;-60
2024/04/19 04:51:49;;;;;;;7.40;3.00;;;6.60;99.90;;;;;;5272267;27;20481;-60
2024/04/19 04:54:15;;;;;;;3.70;2.73;;;6.70;99.90;;;;;;5272165;27;20270;-61
2024/04/19 04:56:40;;;;;;;4.10;2.70;;;6.70;99.90;;;;;;5272584;27;20574;-60
2024/04/19 04:59:06;;;;;;;3.20;2.90;;;6.70;99.90;;;;;;5272089;27;20257;-60
2024/04/19 05:01:31;;;;;;;3.20;2.90;;;6.80;99.90;;;;;;5272242;27;20269;-61
2024/04/19 05:03:57;;;;;;;9.73;3.17;;;6.80;99.90;;;;;;5272457;27;20241;-61
2024/04/19 05:06:22;;;;;;;7.60;3.17;;;6.90;99.90;;;;;;5274140;27;20731;-61
2024/04/19 05:08:48;;;;;;;4.70;3.07;;;6.90;99.90;;;;;;5275804;27;20284;-61
2024/04/19 05:11:14;;;;;;;6.87;3.60;;;6.90;99.90;;;;;;5275096;27;20406;-59
2024/04/19 05:13:39;;;;;;;4.80;3.20;;;7.00;99.90;;;;;;5275486;27;20749;-61
2024/04/19 05:16:05;;;;;;;5.80;4.30;;;7.00;99.90;;;;;;5274964;27;20689;-62
2024/04/19 05:18:31;;;;;;;4.30;2.97;;;7.00;99.90;;;;;;5275424;27;20311;-61
2024/04/19 05:20:56;;;;;;;11.00;4.20;;;7.10;99.90;;;;;;5275252;27;20460;-60
2024/04/19 05:23:22;;;;;;;5.10;3.70;;;7.10;99.90;;;;;;5275089;27;20688;-61
2024/04/19 05:25:50;;;;;;;8.70;3.40;;;7.10;99.90;;;;;;5275316;27;20415;-62
2024/04/19 05:28:16;;;;;;;5.07;3.77;;;7.10;99.90;;;;;;5275160;27;20237;-62
2024/04/19 05:30:42;;;;;;;6.10;3.67;;;7.10;99.90;;;;;;5275028;27;20528;-59
2024/04/19 05:33:08;;;;;;;4.20;3.50;;;7.20;99.90;;;;;;5275190;27;21057;-61
2024/04/19 05:35:33;;;;;;;4.43;3.50;;;7.20;99.90;;;;;;5275160;27;20237;-62
2024/04/19 05:37:59;;;;;;;6.10;3.43;;;7.30;99.90;;;;;;5275721;27;20276;-61
2024/04/19 05:40:25;;;;;;;8.83;5.07;;;7.30;99.90;;;;;;5274831;27;20303;-61
2024/04/19 05:42:51;;;;;;;4.50;4.10;;;7.40;99.90;;;;;;5275207;27;20380;-59
2024/04/19 05:45:17;;;;;;;5.53;3.93;;;7.40;99.90;;;;;;5274756;27;20614;-60
2024/04/19 05:47:43;;;;;;;4.47;3.83;;;7.40;99.90;;;;;;5275225;27;20523;-62
2024/04/19 05:50:08;;;;;;;6.57;4.23;;;7.30;99.90;;;;;;5274435;27;20528;-56
2024/04/19 05:52:34;;;;;;;6.13;4.33;;;7.40;99.90;;;;;;5274890;27;20280;-61
2024/04/19 05:55:00;;;;;;;4.37;4.00;;;7.30;99.90;;;;;;5274724;27;20700;-60
2024/04/19 05:57:25;;;;;;;6.43;4.93;;;7.30;99.90;;;;;;5273700;27;20230;-59
2024/04/19 05:59:51;;;;;;;6.90;4.33;;;7.40;99.90;;;;;;5274947;27;20803;-59
2024/04/19 06:02:17;;;;;;;7.63;4.07;;;7.40;99.90;;;;;;5274655;27;20241;-60
2024/04/19 06:04:43;;;;;;;7.63;4.67;;;7.50;99.90;;;;;;5274789;27;20566;-59
2024/04/19 06:07:08;;;;;;;8.77;4.57;;;7.50;99.90;;;;;;5274637;27;20292;-60
2024/04/19 06:09:34;;;;;;;7.93;4.83;;;7.50;99.90;;;;;;5274272;27;20725;-54
2024/04/19 06:12:01;;;;;;;4.67;4.27;;;7.30;99.90;;;;;;5274572;27;20235;-59
2024/04/19 06:14:27;;;;;;;7.50;4.60;;;7.30;99.90;;;;;;5274365;27;21043;-61
2024/04/19 06:16:53;;;;;;;5.13;4.57;;;7.30;99.90;;;;;;5274387;27;20466;-61
2024/04/19 06:19:19;;;;;;;4.40;3.67;;;7.50;99.90;;;;;;5274038;27;20585;-61
2024/04/19 06:21:44;;;;;;;5.00;4.50;;;7.40;99.90;;;;;;5274254;27;20335;-61
2024/04/19 06:24:10;;;;;;;8.43;5.00;;;7.50;99.90;;;;;;5274191;27;20463;-61
2024/04/19 06:26:37;;;;;;;4.43;4.00;;;7.50;99.90;;;;;;5274976;27;20348;-60
2024/04/19 06:29:02;;;;;;;5.53;4.30;;;7.50;99.90;;;;;;5274317;27;20233;-60
2024/04/19 06:31:28;;;;;;;6.60;4.00;;;7.40;99.90;;;;;;5273924;27;20831;-61
2024/04/19 06:33:53;;;;;;;4.80;4.40;;;7.50;99.90;;;;;;5273697;27;20284;-60
2024/04/19 06:36:20;;;;;;;3.50;3.20;;;7.40;99.90;;;;;;5273675;27;20236;-61
2024/04/19 06:38:45;;;;;;;5.37;3.70;;;7.30;99.90;;;;;;5273430;27;20229;-61
2024/04/19 06:41:11;;;;;;;5.23;4.13;;;7.40;99.90;;;;;;5273210;27;21186;-60
2024/04/19 06:43:36;;;;;;;8.73;3.67;;;7.20;99.90;;;;;;5274257;27;20369;-66
2024/04/19 06:46:02;;;;;;;5.27;4.13;;;7.20;99.90;;;;;;5274356;27;20233;-60
2024/04/19 06:48:27;;;;;;;4.57;4.10;;;7.30;99.90;;;;;;5273834;27;20252;-58
2024/04/19 06:50:53;;;;;;;4.57;4.17;;;7.20;99.90;;;;;;5272175;27;20237;-66
2024/04/19 06:53:19;;;;;;;5.00;3.67;;;7.20;99.90;;;;;;5274050;27;20242;-63
2024/04/19 06:55:44;;;;;;;4.53;3.67;;;7.10;99.90;;;;;;5273481;27;20774;-60
2024/04/19 06:58:10;;;;;;;5.10;4.20;;;7.10;99.90;;;;;;5273527;27;20225;-60
2024/04/19 07:00:39;;;;;;;3.63;3.33;;;7.00;99.90;;;;;;5273336;27;20234;-62
2024/04/19 07:03:05;;;;;;;5.87;4.23;;;6.90;99.90;;;;;;5274304;27;20237;-62
2024/04/19 07:05:30;;;;;;;5.93;4.03;;;6.80;99.90;;;;;;5273253;27;20581;-58
2024/04/19 07:07:56;;;;;;;4.97;4.30;;;6.80;99.90;;;;;;5274690;27;20465;-57
2024/04/19 07:10:22;;;;;;;5.40;4.80;;;6.70;99.90;;;;;;5273495;27;20225;-61
2024/04/19 07:12:51;;;;;;;5.90;4.30;;;6.80;99.90;;;;;;5272024;27;20237;-61
2024/04/19 07:15:17;;;;;;;6.90;4.20;;;6.70;99.90;;;;;;5272846;27;20516;-63
2024/04/19 07:17:43;;;;;;;5.43;4.57;;;6.70;99.90;;;;;;5274345;27;20480;-59
2024/04/19 07:20:09;;;;;;;5.30;4.80;;;6.70;99.90;;;;;;5273294;27;20576;-58
2024/04/19 07:22:36;;;;;;;4.97;4.33;;;6.60;99.90;;;;;;5274449;27;20241;-61
2024/04/19 07:25:02;;;;;;;7.90;5.13;;;6.50;99.90;;;;;;5273556;27;20518;-62
2024/04/19 07:27:28;;;;;;;5.97;4.90;;;6.60;99.90;;;;;;5273517;27;20891;-61
2024/04/19 07:29:54;;;;;;;6.57;4.70;;;6.50;99.90;;;;;;5273055;27;20460;-60
2024/04/19 07:32:20;;;;;;;4.57;3.67;;;6.60;99.90;;;;;;5273576;27;20268;-59
2024/04/19 07:34:46;;;;;;;8.83;5.40;;;6.70;99.90;;;;;;5273966;27;20480;-61
2024/04/19 07:37:12;;;;;;;6.10;4.47;;;6.70;99.90;;;;;;5271564;27;20464;-60
2024/04/19 07:39:38;;;;;;;7.30;5.00;;;6.80;99.90;;;;;;5272264;27;21042;-61
2024/04/19 07:42:04;;;;;;;4.90;4.33;;;6.90;99.90;;;;;;5273606;27;20469;-60
2024/04/19 07:44:29;;;;;;;6.50;5.83;;;7.00;99.90;;;;;;5273122;27;20264;-60
2024/04/19 07:46:55;;;;;;;5.17;4.03;;;7.20;99.90;;;;;;5273539;27;20234;-60
2024/04/19 07:49:20;;;;;;;5.13;4.73;;;7.20;99.90;;;;;;5297330;21;20262;-63
2024/04/19 07:51:46;;;;;;;5.23;3.57;;;7.40;99.90;;;;;;5276837;27;20290;-63
2024/04/19 07:54:11;;;;;;;4.77;4.37;;;7.60;99.90;;;;;;5276499;27;20270;-63
2024/04/19 07:56:41;;;;;;;6.33;4.50;;;7.50;99.90;;;;;;5276574;27;20228;-63
2024/04/19 07:59:09;;;;;;;4.80;4.07;;;7.50;99.90;;;;;;5277080;27;20229;-63
2024/04/19 08:01:35;;;;;;;5.40;3.90;;;7.50;99.90;;;;;;5276767;27;20526;-63
2024/04/19 08:04:00;;;;;;;4.30;3.83;;;7.40;99.90;;;;;;5276780;27;20469;-61
2024/04/19 08:06:26;;;;;;;5.77;3.97;;;7.40;99.90;;;;;;5276360;27;20870;-63
2024/04/19 08:08:52;;;;;;;5.30;4.70;;;7.30;99.90;;;;;;5276564;27;20283;-64
2024/04/19 08:11:17;;;;;;;8.13;4.30;;;7.00;99.90;;;;;;5275564;27;20228;-62
2024/04/19 08:13:43;;;;;;;6.17;5.57;;;7.00;99.90;;;;;;5276686;27;20304;-62
2024/04/19 08:16:09;;;;;;;5.03;4.00;;;7.00;99.90;;;;;;5276598;27;20356;-63
2024/04/19 08:18:34;;;;;;;5.53;3.80;;;7.00;99.90;;;;;;5275615;27;20563;-63
2024/04/19 08:21:00;;;;;;;4.37;3.80;;;7.00;99.90;;;;;;5276297;27;20577;-63
2024/04/19 08:23:26;;;;;;;4.70;4.27;;;7.00;99.90;;;;;;5275310;27;20275;-62
2024/04/19 08:25:52;;;;;;;4.67;4.03;;;7.00;99.90;;;;;;5275592;27;20592;-63
2024/04/19 08:28:18;;;;;;;4.40;3.57;;;7.00;99.90;;;;;;5275067;27;20596;-62
2024/04/19 08:30:45;;;;;;;4.83;4.30;;;7.00;99.90;;;;;;5275212;27;20456;-62
2024/04/19 08:33:10;;;;;;;5.00;4.50;;;7.00;99.90;;;;;;5275605;27;20457;-62
2024/04/19 08:35:36;;;;;;;5.40;4.53;;;7.10;99.90;;;;;;5276034;27;20800;-62
2024/04/19 08:38:02;;;;;;;6.50;5.13;;;7.10;99.90;;;;;;5275909;27;20233;-61
2024/04/19 08:40:31;;;;;;;7.40;5.17;;;7.20;99.90;;;;;;5273823;27;20583;-62
2024/04/19 08:42:56;;;;;;;4.70;4.20;;;7.10;99.90;;;;;;5275999;27;20232;-62
2024/04/19 08:45:23;;;;;;;5.10;4.30;;;7.10;99.90;;;;;;5276022;27;20515;-63
2024/04/19 08:47:49;;;;;;;10.00;4.90;;;7.10;99.90;;;;;;5275822;27;20308;-63
2024/04/19 08:50:16;;;;;;;6.40;5.80;;;7.20;99.90;;;;;;5275719;27;20803;-63
2024/04/19 08:52:45;;;;;;;6.30;5.40;;;7.10;99.90;;;;;;5275949;27;20236;-63
2024/04/19 08:55:12;;;;;;;6.23;5.30;;;7.10;99.90;;;;;;5275606;27;20460;-65
2024/04/19 08:57:42;;;;;;;8.77;5.60;;;7.10;99.90;;;;;;5275594;27;20459;-63
2024/04/19 09:00:09;;;;;;;6.90;5.90;;;7.10;99.90;;;;;;5275580;27;20518;-67
2024/04/19 09:02:34;;;;;;;9.07;5.60;;;7.10;99.90;;;;;;5275493;27;20465;-62
2024/04/19 09:05:01;;;;;;;8.23;5.87;;;7.10;99.90;;;;;;5275598;27;20520;-62
2024/04/19 09:07:30;;;;;;;6.43;5.83;;;7.20;99.90;;;;;;5275502;27;20626;-64
2024/04/19 09:09:57;;;;;;;6.70;5.60;;;7.20;99.90;;;;;;5275474;27;20559;-62
2024/04/19 09:12:23;;;;;;;8.30;6.10;;;7.20;99.90;;;;;;5275550;27;20520;-63
2024/04/19 09:14:49;;;;;;;7.67;6.57;;;7.30;99.90;;;;;;5275614;27;20456;-61
2024/04/19 09:17:15;;;;;;;6.37;5.77;;;7.30;99.90;;;;;;5275461;27;20296;-62
2024/04/19 09:19:42;;;;;;;5.97;5.37;;;7.40;99.90;;;;;;5275479;27;20467;-61
2024/04/19 09:22:07;;;;;;;8.93;5.87;;;7.30;99.90;;;;;;5275717;27;20233;-64
2024/04/19 09:24:33;;;;;;;6.90;6.10;;;7.20;99.90;;;;;;5275018;27;20867;-63
2024/04/19 09:27:01;;;;;;;8.70;6.40;;;7.20;99.90;;;;;;5275362;27;20289;-63
2024/04/19 09:29:26;;;;;;;8.27;6.93;;;7.30;99.90;;;;;;5274533;27;20506;-62
2024/04/19 09:31:52;;;;;;;7.20;6.50;;;7.40;99.90;;;;;;5275243;27;20515;-62
2024/04/19 09:34:18;;;;;;;9.80;7.40;;;7.60;99.90;;;;;;5275152;27;20224;-62
2024/04/19 09:36:46;;;;;;;7.30;6.23;;;7.40;99.90;;;;;;5275127;27;20336;-63
2024/04/19 09:39:13;;;;;;;8.37;7.57;;;7.40;99.90;;;;;;5275122;27;20233;-63
2024/04/19 09:41:41;;;;;;;6.73;5.87;;;7.30;99.90;;;;;;5273984;27;20840;-62
2024/04/19 09:44:14;;;;;;;7.00;6.33;;;7.30;99.90;;;;;;5270567;27;20592;-63
2024/04/19 09:46:42;;;;;;;6.47;5.80;;;7.30;99.90;;;;;;5274228;27;20848;-62
2024/04/19 09:49:09;;;;;;;6.17;5.50;;;7.40;99.90;;;;;;5273058;27;21058;-64
2024/04/19 09:51:43;;;;;;;8.00;6.33;;;7.40;99.90;;;;;;5275743;27;20517;-63
2024/04/19 09:54:12;;;;;;;6.10;5.50;;;7.40;99.90;;;;;;5277151;27;20868;-62
2024/04/19 09:56:57;;;;;;;7.30;5.87;;;7.40;99.90;;;;;;5277776;27;20550;-63
2024/04/19 09:59:24;;;;;;;5.40;4.80;;;7.40;99.90;;;;;;5277570;27;20464;-63
2024/04/19 10:01:51;;;;;;;5.30;4.80;;;7.40;99.90;;;;;;5276617;27;20479;-64
2024/04/19 10:04:17;;;;;;;5.97;5.00;;;7.40;99.90;;;;;;5277723;27;20514;-63
2024/04/19 10:06:44;;;;;;;5.47;4.97;;;7.40;99.90;;;;;;5278188;27;21022;-66
2024/04/19 10:09:14;;;;;;;7.03;5.30;;;7.40;99.90;;;;;;5277802;27;20460;-61
2024/04/19 10:11:49;;;;;;;5.43;4.87;;;7.40;99.90;;;;;;5277677;27;20460;-62
2024/04/19 10:14:15;;;;;;;5.50;4.20;;;7.40;99.90;;;;;;5277490;27;21006;-63
2024/04/19 10:16:41;;;;;;;4.33;3.83;;;7.50;99.90;;;;;;5277231;27;20552;-63
2024/04/19 10:19:07;;;;;;;4.70;4.23;;;7.50;99.90;;;;;;5277920;27;20465;-62
2024/04/19 10:21:36;;;;;;;4.57;4.20;;;7.50;99.90;;;;;;5277014;27;20776;-67
2024/04/19 10:24:17;;;;;;;4.27;3.97;;;7.40;99.90;;;;;;5278091;27;20229;-63
2024/04/19 10:26:50;;;;;;;4.40;4.10;;;7.30;99.90;;;;;;5278010;27;20456;-63
2024/04/19 10:29:21;;;;;;;3.93;3.57;;;7.10;99.90;;;;;;5278372;27;21066;-61
2024/04/19 10:31:51;;;;;;;3.53;3.23;;;7.20;99.90;;;;;;5278548;27;20476;-64
2024/04/19 10:34:17;;;;;;;3.17;2.87;;;7.10;99.90;;;;;;5278254;27;21109;-63
2024/04/19 10:36:43;;;;;;;3.77;3.47;;;7.10;99.90;;;;;;5277668;27;20520;-63
2024/04/19 10:39:09;;;;;;;2.60;2.40;;;7.10;99.90;;;;;;5277487;27;20467;-65
2024/04/19 10:41:34;;;;;;;4.00;3.33;;;7.00;99.90;;;;;;5277451;27;20229;-62
2024/04/19 10:44:00;;;;;;;3.20;2.70;;;7.00;99.90;;;;;;5277836;27;20468;-62
2024/04/19 10:46:26;;;;;;;3.47;3.10;;;6.90;99.90;;;;;;5276987;27;20319;-63
2024/04/19 10:48:53;;;;;;;4.27;3.43;;;7.00;99.90;;;;;;5277209;27;20564;-62
2024/04/19 10:51:20;;;;;;;3.37;3.07;;;7.10;99.90;;;;;;5271356;27;21096;-61
2024/04/19 10:53:46;;;;;;;3.30;3.00;;;7.10;99.90;;;;;;5274393;27;20985;-62
2024/04/19 10:56:12;;;;;;;3.40;3.10;;;7.10;99.90;;;;;;5277745;27;20533;-63
2024/04/19 10:58:37;;;;;;;3.40;3.20;;;7.10;99.90;;;;;;5277415;27;20792;-63
2024/04/19 11:01:03;;;;;;;4.00;3.70;;;7.20;99.90;;;;;;5277241;27;20233;-67
2024/04/19 11:03:29;;;;;;;4.17;3.83;;;7.30;99.90;;;;;;5276398;27;20224;-64
2024/04/19 11:05:55;;;;;;;4.33;3.93;;;7.40;99.90;;;;;;5277485;27;20279;-70
2024/04/19 11:08:21;;;;;;;4.27;3.53;;;7.30;99.90;;;;;;5277164;27;20237;-60
2024/04/19 11:10:47;;;;;;;3.47;3.03;;;7.30;99.90;;;;;;5271887;27;20474;-62
2024/04/19 11:13:14;;;;;;;2.80;2.60;;;7.20;99.90;;;;;;5275778;27;20473;-62
2024/04/19 11:15:40;;;;;;;2.73;2.30;;;7.20;99.90;;;;;;5276463;27;20456;-62
2024/04/19 11:18:07;;;;;;;4.00;3.17;;;7.10;99.90;;;;;;5277390;27;20962;-62
2024/04/19 11:20:36;;;;;;;4.00;3.70;;;7.10;99.90;;;;;;5276864;27;20517;-62
2024/04/19 11:23:03;;;;;;;2.80;2.40;;;7.10;99.90;;;;;;5277289;27;20832;-63
2024/04/19 11:25:29;;;;;;;2.90;1.80;;;6.90;99.90;;;;;;5277077;27;20539;-64
2024/04/19 11:27:55;;;;;;;1.90;1.80;;;6.70;99.90;;;;;;5276726;27;20464;-62
2024/04/19 11:30:21;;;;;;;1.20;1.10;;;6.60;99.90;;;;;;5276779;27;20524;-62
2024/04/19 11:32:50;;;;;;;1.27;1.03;;;6.40;99.90;;;;;;5263194;27;20468;-61
2024/04/19 11:35:19;;;;;;;1.90;1.10;;;6.10;99.90;;;;;;5276923;27;20481;-62
2024/04/19 11:37:49;;;;;;;1.13;1.03;;;6.00;99.90;;;;;;5276625;27;20477;-61
2024/04/19 11:40:21;;;;;;;1.87;1.00;;;5.90;99.90;;;;;;5276850;27;20549;-63
2024/04/19 11:42:50;;;;;;;2.13;1.20;;;6.00;99.90;;;;;;5276349;27;20862;-64
2024/04/19 11:45:18;;;;;;;1.40;1.30;;;6.10;99.90;;;;;;5275573;27;20463;-62
2024/04/19 11:47:43;;;;;;;1.10;1.00;;;6.20;99.90;;;;;;5276190;27;21049;-68
2024/04/19 11:50:10;;;;;;;2.07;1.00;;;6.20;99.90;;;;;;5276658;27;20519;-66
2024/04/19 11:52:35;;;;;;;1.20;1.10;;;6.30;99.90;;;;;;5276427;27;20662;-62
2024/04/19 11:55:01;;;;;;;2.10;1.10;;;6.20;99.90;;;;;;5277254;27;20464;-67
2024/04/19 11:57:27;;;;;;;1.10;0.93;;;6.30;99.90;;;;;;5276555;27;20558;-67
2024/04/19 11:59:53;;;;;;;1.20;1.00;;;6.30;99.90;;;;;;5276555;27;20920;-63
2024/04/19 12:02:18;;;;;;;0.80;0.80;;;6.20;99.90;;;;;;5276701;27;20727;-63
2024/04/19 12:04:44;;;;;;;0.80;0.80;;;6.20;99.90;;;;;;5276350;27;20237;-62
2024/04/19 12:07:10;;;;;;;0.83;0.80;;;6.10;99.90;;;;;;5276684;27;20228;-62
2024/04/19 12:09:37;;;;;;;1.23;1.13;;;6.20;99.90;;;;;;5276337;27;20697;-63
2024/04/19 12:12:03;;;;;;;1.10;1.00;;;6.30;99.90;;;;;;5276654;27;20472;-63
2024/04/19 12:14:34;;;;;;;2.17;1.70;;;6.30;99.90;;;;;;5276081;27;20524;-63
2024/04/19 12:17:08;;;;;;;1.40;1.30;;;6.40;99.90;;;;;;5276292;27;20931;-67
2024/04/19 12:19:36;;;;;;;2.03;1.30;;;6.60;99.90;;;;;;5275871;27;20477;-62
2024/04/19 12:22:02;;;;;;;1.20;1.10;;;6.60;99.90;;;;;;5276349;27;20528;-62
2024/04/19 12:24:28;;;;;;;1.43;1.33;;;6.70;99.90;;;;;;5276977;27;20618;-65
2024/04/19 12:26:54;;;;;;;1.40;1.30;;;6.70;99.90;;;;;;5276474;27;20460;-61
2024/04/19 12:29:20;;;;;;;1.67;1.57;;;6.60;99.90;;;;;;5276334;27;21107;-62
2024/04/19 12:31:46;;;;;;;1.80;1.63;;;6.60;99.90;;;;;;5276235;27;20537;-63
2024/04/19 12:34:11;;;;;;;3.10;2.80;;;6.50;99.90;;;;;;5275908;27;20334;-62
2024/04/19 12:36:39;;;;;;;2.60;2.30;;;6.50;99.90;;;;;;5275798;27;20237;-65
2024/04/19 12:39:05;;;;;;;1.47;1.37;;;6.50;99.90;;;;;;5275542;27;20300;-61
2024/04/19 12:41:31;;;;;;;1.70;1.60;;;6.60;99.90;;;;;;5275509;27;20461;-63
2024/04/19 12:43:58;;;;;;;2.73;1.83;;;6.60;99.90;;;;;;5275734;27;20610;-61
2024/04/19 12:46:24;;;;;;;1.60;1.50;;;6.60;99.90;;;;;;5275520;27;20460;-62
2024/04/19 12:49:01;;;;;;;1.60;1.50;;;6.70;99.90;;;;;;5274927;27;21050;-63
2024/04/19 12:51:27;;;;;;;1.63;1.53;;;6.90;99.90;;;;;;5273125;27;20233;-62
2024/04/19 12:53:53;;;;;;;1.30;1.20;;;7.00;99.90;;;;;;5275347;27;20815;-63
2024/04/19 12:56:18;;;;;;;4.23;1.90;;;7.20;99.90;;;;;;5275365;27;20680;-62
2024/04/19 12:58:45;;;;;;;1.33;1.23;;;7.10;99.90;;;;;;5275316;27;20480;-63